createdAt,value
2016-12-11T00:00:36.568Z,1030.25
2016-12-11T00:01:36.560Z,1030.21
2016-12-11T00:02:36.552Z,1030.19
2016-12-11T00:03:36.542Z,1030.18
2016-12-11T00:04:36.535Z,1030.17
2016-12-11T00:05:36.527Z,1030.17
2016-12-11T00:06:36.519Z,1030.22
2016-12-11T00:07:36.511Z,1030.2
2016-12-11T00:08:36.501Z,1030.14
2016-12-11T00:09:36.493Z,1030.16
2016-12-11T00:10:36.483Z,1030.15
2016-12-11T00:11:36.475Z,1030.13
2016-12-11T00:12:36.467Z,1030.08
2016-12-11T00:13:36.460Z,1030.1
2016-12-11T00:14:36.450Z,1030.11
2016-12-11T00:15:36.441Z,1030.08
2016-12-11T00:16:36.433Z,1030.11
2016-12-11T00:17:36.427Z,1030.09
2016-12-11T00:18:36.417Z,1030.06
2016-12-11T00:19:36.408Z,1030.05
2016-12-11T00:20:36.401Z,1030.02
2016-12-11T00:21:36.391Z,1030
2016-12-11T00:22:36.386Z,1029.99
2016-12-11T00:23:36.376Z,1030.01
2016-12-11T00:24:36.367Z,1029.96
2016-12-11T00:25:36.358Z,1029.95
2016-12-11T00:26:36.349Z,1029.91
2016-12-11T00:27:36.343Z,1029.92
2016-12-11T00:28:36.333Z,1029.85
2016-12-11T00:29:36.327Z,1029.82
2016-12-11T00:30:36.318Z,1029.81
2016-12-11T00:31:36.310Z,1029.78
2016-12-11T00:32:36.300Z,1029.74
2016-12-11T00:33:36.293Z,1029.71
2016-12-11T00:34:36.283Z,1029.64
2016-12-11T00:35:36.277Z,1029.65
2016-12-11T00:36:36.268Z,1029.69
2016-12-11T00:37:36.259Z,1029.73
2016-12-11T00:38:36.250Z,1029.73
2016-12-11T00:39:36.242Z,1029.73
2016-12-11T00:40:36.233Z,1029.74
2016-12-11T00:41:36.226Z,1029.74
2016-12-11T00:42:36.216Z,1029.76
2016-12-11T00:43:36.208Z,1029.74
2016-12-11T00:44:36.199Z,1029.75
2016-12-11T00:45:36.190Z,1029.72
2016-12-11T00:46:36.184Z,1029.74
2016-12-11T00:47:36.174Z,1029.73
2016-12-11T00:48:36.165Z,1029.67
2016-12-11T00:49:36.157Z,1029.6
2016-12-11T00:50:36.148Z,1029.59
2016-12-11T00:51:36.140Z,1029.53
2016-12-11T00:52:36.136Z,1029.5
2016-12-11T00:53:36.123Z,1029.49
2016-12-11T00:54:36.116Z,1029.43
2016-12-11T00:55:36.107Z,1029.42
2016-12-11T00:56:36.099Z,1029.42
2016-12-11T00:57:36.091Z,1029.4
2016-12-11T00:58:36.083Z,1029.36
2016-12-11T00:59:36.071Z,1029.39
2016-12-11T01:00:36.065Z,1029.37
2016-12-11T01:01:36.059Z,1029.39
2016-12-11T01:02:36.049Z,1029.4
2016-12-11T01:03:36.038Z,1029.43
2016-12-11T01:04:36.029Z,1029.4
2016-12-11T01:05:36.021Z,1029.38
2016-12-11T01:06:36.014Z,1029.4
2016-12-11T01:07:36.004Z,1029.38
2016-12-11T01:08:35.997Z,1029.37
2016-12-11T01:09:35.987Z,1029.38
2016-12-11T01:10:35.978Z,1029.32
2016-12-11T01:11:35.970Z,1029.33
2016-12-11T01:12:35.963Z,1029.33
2016-12-11T01:13:35.956Z,1029.31
2016-12-11T01:14:35.947Z,1029.3
2016-12-11T01:15:35.936Z,1029.29
2016-12-11T01:16:35.931Z,1029.29
2016-12-11T01:17:35.921Z,1029.35
2016-12-11T01:18:35.911Z,1029.35
2016-12-11T01:19:35.903Z,1029.38
2016-12-11T01:20:35.897Z,1029.4
2016-12-11T01:21:35.887Z,1029.51
2016-12-11T01:22:35.879Z,1029.49
2016-12-11T01:23:35.872Z,1029.49
2016-12-11T01:24:35.861Z,1029.5
2016-12-11T01:25:35.853Z,1029.45
2016-12-11T01:26:35.845Z,1029.41
2016-12-11T01:27:35.836Z,1029.44
2016-12-11T01:28:35.826Z,1029.37
2016-12-11T01:29:35.818Z,1029.27
2016-12-11T01:30:35.809Z,1029.25
2016-12-11T01:31:35.803Z,1029.19
2016-12-11T01:32:35.792Z,1029.2
2016-12-11T01:33:35.785Z,1029.11
2016-12-11T01:34:35.777Z,1029.12
2016-12-11T01:35:35.767Z,1029.17
2016-12-11T01:36:35.757Z,1029.16
2016-12-11T01:37:35.749Z,1029.18
2016-12-11T01:38:35.742Z,1029.21
2016-12-11T01:39:35.731Z,1029.19
2016-12-11T01:40:35.723Z,1029.21
2016-12-11T01:41:35.715Z,1029.22
2016-12-11T01:42:35.706Z,1029.19
2016-12-11T01:43:35.700Z,1029.18
2016-12-11T01:44:35.689Z,1029.12
2016-12-11T01:45:35.682Z,1029.04
2016-12-11T01:46:35.673Z,1029.02
2016-12-11T01:47:35.661Z,1029
2016-12-11T01:48:35.655Z,1029.06
2016-12-11T01:49:35.647Z,1029.05
2016-12-11T01:50:35.635Z,1029.02
2016-12-11T01:51:35.626Z,1028.97
2016-12-11T01:52:35.618Z,1028.93
2016-12-11T01:53:35.612Z,1028.96
2016-12-11T01:54:35.600Z,1028.94
2016-12-11T01:55:35.592Z,1028.9
2016-12-11T01:56:35.583Z,1028.95
2016-12-11T01:57:35.577Z,1028.9
2016-12-11T01:58:35.565Z,1028.91
2016-12-11T01:59:35.559Z,1028.86
2016-12-11T02:00:35.550Z,1028.83
2016-12-11T02:01:35.539Z,1028.78
2016-12-11T02:02:35.830Z,1028.76
2016-12-11T02:03:35.521Z,1028.73
2016-12-11T02:04:35.513Z,1028.71
2016-12-11T02:05:35.505Z,1028.74
2016-12-11T02:06:35.496Z,1028.66
2016-12-11T02:07:35.485Z,1028.61
2016-12-11T02:08:35.477Z,1028.62
2016-12-11T02:09:35.467Z,1028.58
2016-12-11T02:10:35.460Z,1028.55
2016-12-11T02:11:35.451Z,1028.51
2016-12-11T02:12:35.442Z,1028.53
2016-12-11T02:13:35.433Z,1028.49
2016-12-11T02:14:35.423Z,1028.43
2016-12-11T02:15:35.415Z,1028.38
2016-12-11T02:16:35.405Z,1028.34
2016-12-11T02:17:35.396Z,1028.27
2016-12-11T02:18:35.387Z,1028.25
2016-12-11T02:19:35.378Z,1028.25
2016-12-11T02:20:35.372Z,1028.27
2016-12-11T02:21:35.361Z,1028.22
2016-12-11T02:22:35.353Z,1028.25
2016-12-11T02:23:35.342Z,1028.24
2016-12-11T02:24:35.335Z,1028.16
2016-12-11T02:25:35.327Z,1028.13
2016-12-11T02:26:35.317Z,1028.09
2016-12-11T02:27:35.307Z,1028.04
2016-12-11T02:28:35.297Z,1028.02
2016-12-11T02:29:35.290Z,1028.04
2016-12-11T02:30:35.280Z,1028.05
2016-12-11T02:31:35.269Z,1028.06
2016-12-11T02:32:35.263Z,1028.08
2016-12-11T02:33:35.253Z,1028.09
2016-12-11T02:34:35.257Z,1028.08
2016-12-11T02:35:35.234Z,1028.1
2016-12-11T02:36:35.227Z,1028.08
2016-12-11T02:37:35.217Z,1028.13
2016-12-11T02:38:35.208Z,1028.14
2016-12-11T02:39:35.199Z,1028.12
2016-12-11T02:40:35.191Z,1028.02
2016-12-11T02:41:35.179Z,1028.07
2016-12-11T02:42:35.169Z,1028.05
2016-12-11T02:43:35.160Z,1028.04
2016-12-11T02:44:35.153Z,1028.1
2016-12-11T02:45:35.143Z,1028.07
2016-12-11T02:46:35.133Z,1028.05
2016-12-11T02:47:35.125Z,1028.04
2016-12-11T02:48:35.115Z,1028.03
2016-12-11T02:49:35.106Z,1028.01
2016-12-11T02:50:35.099Z,1028.04
2016-12-11T02:51:35.088Z,1028.05
2016-12-11T02:52:35.078Z,1027.98
2016-12-11T02:53:35.071Z,1028.01
2016-12-11T02:54:35.062Z,1027.98
2016-12-11T02:55:35.051Z,1027.9
2016-12-11T02:56:35.041Z,1027.9
2016-12-11T02:57:35.032Z,1027.83
2016-12-11T02:58:35.023Z,1027.75
2016-12-11T02:59:35.015Z,1027.75
2016-12-11T03:00:35.005Z,1027.71
2016-12-11T03:01:34.997Z,1027.69
2016-12-11T03:02:34.989Z,1027.68
2016-12-11T03:03:34.977Z,1027.63
2016-12-11T03:04:34.995Z,1027.61
2016-12-11T03:05:34.958Z,1027.58
2016-12-11T03:06:34.950Z,1027.53
2016-12-11T03:07:34.941Z,1027.52
2016-12-11T03:08:34.930Z,1027.52
2016-12-11T03:09:34.921Z,1027.57
2016-12-11T03:10:34.911Z,1027.54
2016-12-11T03:11:34.901Z,1027.5
2016-12-11T03:12:34.893Z,1027.43
2016-12-11T03:13:34.885Z,1027.42
2016-12-11T03:14:34.873Z,1027.36
2016-12-11T03:15:34.864Z,1027.31
2016-12-11T03:16:34.857Z,1027.27
2016-12-11T03:17:34.847Z,1027.24
2016-12-11T03:18:34.838Z,1027.24
2016-12-11T03:19:34.828Z,1027.19
2016-12-11T03:20:34.820Z,1027.07
2016-12-11T03:21:34.811Z,1027.08
2016-12-11T03:22:34.800Z,1026.97
2016-12-11T03:23:34.792Z,1026.89
2016-12-11T03:24:34.783Z,1026.81
2016-12-11T03:25:34.771Z,1026.75
2016-12-11T03:26:34.764Z,1026.72
2016-12-11T03:27:34.755Z,1026.67
2016-12-11T03:28:34.745Z,1026.65
2016-12-11T03:29:34.735Z,1026.65
2016-12-11T03:30:34.725Z,1026.62
2016-12-11T03:31:34.716Z,1026.57
2016-12-11T03:32:34.707Z,1026.49
2016-12-11T03:33:34.697Z,1026.55
2016-12-11T03:34:34.688Z,1026.55
2016-12-11T03:35:34.679Z,1026.51
2016-12-11T03:36:34.669Z,1026.51
2016-12-11T03:37:34.660Z,1026.5
2016-12-11T03:38:34.653Z,1026.49
2016-12-11T03:39:34.642Z,1026.47
2016-12-11T03:40:34.632Z,1026.49
2016-12-11T03:41:34.625Z,1026.48
2016-12-11T03:42:34.618Z,1026.45
2016-12-11T03:43:34.607Z,1026.46
2016-12-11T03:44:34.596Z,1026.43
2016-12-11T03:45:34.588Z,1026.43
2016-12-11T03:46:34.578Z,1026.46
2016-12-11T03:47:34.569Z,1026.41
2016-12-11T03:48:34.559Z,1026.42
2016-12-11T03:49:34.551Z,1026.35
2016-12-11T03:50:34.541Z,1026.29
2016-12-11T03:51:34.534Z,1026.27
2016-12-11T03:52:34.522Z,1026.21
2016-12-11T03:53:34.513Z,1026.22
2016-12-11T03:54:34.505Z,1026.17
2016-12-11T03:55:34.496Z,1026.16
2016-12-11T03:56:34.487Z,1026.08
2016-12-11T03:57:34.476Z,1026.05
2016-12-11T03:58:34.468Z,1025.98
2016-12-11T03:59:34.457Z,1025.97
2016-12-11T04:00:34.448Z,1025.98
2016-12-11T04:01:34.440Z,1026.04
2016-12-11T04:02:34.429Z,1026.1
2016-12-11T04:03:34.420Z,1026.07
2016-12-11T04:04:34.411Z,1026.01
2016-12-11T04:05:34.402Z,1025.95
2016-12-11T04:06:34.393Z,1025.96
2016-12-11T04:07:34.382Z,1025.99
2016-12-11T04:08:34.373Z,1026.02
2016-12-11T04:09:34.363Z,1026.02
2016-12-11T04:10:34.359Z,1025.96
2016-12-11T04:11:34.345Z,1025.87
2016-12-11T04:12:34.336Z,1025.88
2016-12-11T04:13:34.326Z,1025.89
2016-12-11T04:14:34.317Z,1025.87
2016-12-11T04:15:34.309Z,1025.83
2016-12-11T04:16:34.298Z,1025.84
2016-12-11T04:17:34.291Z,1025.84
2016-12-11T04:18:34.279Z,1025.82
2016-12-11T04:19:34.270Z,1025.8
2016-12-11T04:20:34.262Z,1025.7
2016-12-11T04:21:34.251Z,1025.64
2016-12-11T04:22:34.243Z,1025.58
2016-12-11T04:23:34.234Z,1025.58
2016-12-11T04:24:34.224Z,1025.59
2016-12-11T04:25:34.213Z,1025.58
2016-12-11T04:26:34.204Z,1025.57
2016-12-11T04:27:34.194Z,1025.56
2016-12-11T04:28:34.185Z,1025.51
2016-12-11T04:29:34.176Z,1025.51
2016-12-11T04:30:34.167Z,1025.53
2016-12-11T04:31:34.159Z,1025.5
2016-12-11T04:32:34.148Z,1025.46
2016-12-11T04:33:34.139Z,1025.45
2016-12-11T04:34:34.129Z,1025.44
2016-12-11T04:35:34.119Z,1025.44
2016-12-11T04:36:34.112Z,1025.45
2016-12-11T04:37:34.103Z,1025.33
2016-12-11T04:38:34.091Z,1025.36
2016-12-11T04:39:34.082Z,1025.33
2016-12-11T04:40:34.075Z,1025.31
2016-12-11T04:41:34.066Z,1025.26
2016-12-11T04:42:34.055Z,1025.25
2016-12-11T04:43:34.044Z,1025.22
2016-12-11T04:44:34.035Z,1025.23
2016-12-11T04:45:34.026Z,1025.16
2016-12-11T04:46:34.023Z,1025.11
2016-12-11T04:47:34.008Z,1025.09
2016-12-11T04:48:33.999Z,1025.04
2016-12-11T04:49:33.987Z,1025.04
2016-12-11T04:50:33.978Z,1025
2016-12-11T04:51:33.969Z,1024.95
2016-12-11T04:52:33.962Z,1024.86
2016-12-11T04:53:33.950Z,1024.89
2016-12-11T04:54:33.940Z,1024.85
2016-12-11T04:55:33.933Z,1024.91
2016-12-11T04:56:33.922Z,1024.87
2016-12-11T04:57:33.913Z,1024.91
2016-12-11T04:58:33.905Z,1024.79
2016-12-11T04:59:33.894Z,1024.73
2016-12-11T05:00:33.885Z,1024.75
2016-12-11T05:01:33.874Z,1024.81
2016-12-11T05:02:33.865Z,1024.79
2016-12-11T05:03:33.858Z,1024.72
2016-12-11T05:04:33.847Z,1024.67
2016-12-11T05:05:33.838Z,1024.59
2016-12-11T05:06:33.827Z,1024.53
2016-12-11T05:07:33.820Z,1024.48
2016-12-11T05:08:33.810Z,1024.41
2016-12-11T05:09:33.801Z,1024.45
2016-12-11T05:10:33.790Z,1024.4
2016-12-11T05:11:33.781Z,1024.37
2016-12-11T05:12:33.770Z,1024.35
2016-12-11T05:13:33.762Z,1024.32
2016-12-11T05:14:33.751Z,1024.24
2016-12-11T05:15:33.742Z,1024.19
2016-12-11T05:16:33.736Z,1024.19
2016-12-11T05:17:33.723Z,1024.18
2016-12-11T05:18:33.715Z,1024.12
2016-12-11T05:19:33.706Z,1024.11
2016-12-11T05:20:33.696Z,1024.1
2016-12-11T05:21:33.687Z,1024.11
2016-12-11T05:22:33.674Z,1024.1
2016-12-11T05:23:33.666Z,1024.04
2016-12-11T05:24:33.657Z,1024
2016-12-11T05:25:33.647Z,1023.98
2016-12-11T05:26:33.636Z,1023.91
2016-12-11T05:27:33.626Z,1023.93
2016-12-11T05:28:33.618Z,1023.87
2016-12-11T05:29:33.606Z,1023.94
2016-12-11T05:30:33.597Z,1023.99
2016-12-11T05:31:33.590Z,1024.01
2016-12-11T05:32:33.580Z,1024
2016-12-11T05:33:33.569Z,1023.98
2016-12-11T05:34:33.559Z,1023.94
2016-12-11T05:35:33.549Z,1023.84
2016-12-11T05:36:33.539Z,1023.8
2016-12-11T05:37:33.531Z,1023.79
2016-12-11T05:38:33.520Z,1023.76
2016-12-11T05:39:33.513Z,1023.69
2016-12-11T05:40:33.500Z,1023.7
2016-12-11T05:41:33.493Z,1023.65
2016-12-11T05:42:33.483Z,1023.68
2016-12-11T05:43:33.474Z,1023.71
2016-12-11T05:44:33.461Z,1023.7
2016-12-11T05:45:33.452Z,1023.59
2016-12-11T05:46:33.444Z,1023.53
2016-12-11T05:47:33.434Z,1023.55
2016-12-11T05:48:33.423Z,1023.51
2016-12-11T05:49:33.413Z,1023.49
2016-12-11T05:50:33.404Z,1023.42
2016-12-11T05:51:33.393Z,1023.33
2016-12-11T05:52:33.383Z,1023.2
2016-12-11T05:53:33.376Z,1023.08
2016-12-11T05:54:33.367Z,1023.09
2016-12-11T05:55:33.356Z,1023.16
2016-12-11T05:56:33.347Z,1023.2
2016-12-11T05:57:33.338Z,1023.22
2016-12-11T05:58:33.327Z,1023.16
2016-12-11T05:59:33.315Z,1023.13
2016-12-11T06:00:33.308Z,1023.08
2016-12-11T06:01:33.297Z,1023.05
2016-12-11T06:02:33.288Z,1023.05
2016-12-11T06:03:33.277Z,1023.02
2016-12-11T06:04:33.268Z,1022.98
2016-12-11T06:05:33.258Z,1022.97
2016-12-11T06:06:33.250Z,1022.96
2016-12-11T06:07:33.238Z,1022.96
2016-12-11T06:08:33.229Z,1022.96
2016-12-11T06:09:33.223Z,1022.94
2016-12-11T06:10:33.209Z,1022.9
2016-12-11T06:11:33.203Z,1022.94
2016-12-11T06:12:33.192Z,1022.91
2016-12-11T06:13:33.182Z,1022.89
2016-12-11T06:14:33.171Z,1022.82
2016-12-11T06:15:33.161Z,1022.8
2016-12-11T06:16:33.154Z,1022.86
2016-12-11T06:17:33.142Z,1022.79
2016-12-11T06:18:33.132Z,1022.73
2016-12-11T06:19:33.125Z,1022.62
2016-12-11T06:20:33.116Z,1022.66
2016-12-11T06:21:33.104Z,1022.73
2016-12-11T06:22:33.094Z,1022.68
2016-12-11T06:23:33.087Z,1022.61
2016-12-11T06:24:33.074Z,1022.59
2016-12-11T06:25:33.065Z,1022.55
2016-12-11T06:26:33.058Z,1022.47
2016-12-11T06:27:33.046Z,1022.53
2016-12-11T06:28:33.037Z,1022.54
2016-12-11T06:29:33.028Z,1022.5
2016-12-11T06:30:33.021Z,1022.54
2016-12-11T06:31:33.010Z,1022.56
2016-12-11T06:32:33.000Z,1022.57
2016-12-11T06:33:32.989Z,1022.52
2016-12-11T06:34:32.980Z,1022.56
2016-12-11T06:35:32.968Z,1022.49
2016-12-11T06:36:32.961Z,1022.49
2016-12-11T06:37:32.951Z,1022.5
2016-12-11T06:38:32.940Z,1022.39
2016-12-11T06:39:32.932Z,1022.35
2016-12-11T06:40:32.925Z,1022.24
2016-12-11T06:41:32.913Z,1022.26
2016-12-11T06:42:32.902Z,1022.3
2016-12-11T06:43:32.892Z,1022.32
2016-12-11T06:44:32.884Z,1022.27
2016-12-11T06:45:32.873Z,1022.29
2016-12-11T06:46:32.862Z,1022.16
2016-12-11T06:47:32.853Z,1022.13
2016-12-11T06:48:32.843Z,1022.17
2016-12-11T06:49:32.834Z,1022.19
2016-12-11T06:50:32.824Z,1022.24
2016-12-11T06:51:32.816Z,1022.2
2016-12-11T06:52:32.807Z,1022.22
2016-12-11T06:53:32.800Z,1022.15
2016-12-11T06:54:32.787Z,1022.2
2016-12-11T06:55:32.778Z,1022.16
2016-12-11T06:56:32.768Z,1022.16
2016-12-11T06:57:32.756Z,1022.06
2016-12-11T06:58:32.749Z,1022.08
2016-12-11T06:59:32.737Z,1022.03
2016-12-11T07:00:32.730Z,1022.05
2016-12-11T07:01:32.719Z,1022.06
2016-12-11T07:02:32.709Z,1022.01
2016-12-11T07:03:32.701Z,1022
2016-12-11T07:04:32.689Z,1022.02
2016-12-11T07:05:32.679Z,1021.99
2016-12-11T07:06:32.672Z,1021.97
2016-12-11T07:07:32.661Z,1021.98
2016-12-11T07:08:32.650Z,1021.88
2016-12-11T07:09:32.641Z,1021.89
2016-12-11T07:10:32.632Z,1021.86
2016-12-11T07:11:32.624Z,1021.86
2016-12-11T07:12:32.612Z,1021.81
2016-12-11T07:13:32.605Z,1021.81
2016-12-11T07:14:32.596Z,1021.74
2016-12-11T07:15:32.585Z,1021.79
2016-12-11T07:16:32.575Z,1021.78
2016-12-11T07:17:32.566Z,1021.73
2016-12-11T07:18:32.555Z,1021.71
2016-12-11T07:19:32.546Z,1021.66
2016-12-11T07:20:32.535Z,1021.61
2016-12-11T07:21:32.528Z,1021.68
2016-12-11T07:22:32.517Z,1021.57
2016-12-11T07:23:32.509Z,1021.6
2016-12-11T07:24:32.499Z,1021.57
2016-12-11T07:25:32.488Z,1021.57
2016-12-11T07:26:32.479Z,1021.52
2016-12-11T07:27:32.470Z,1021.52
2016-12-11T07:28:32.459Z,1021.54
2016-12-11T07:29:32.450Z,1021.5
2016-12-11T07:30:32.439Z,1021.43
2016-12-11T07:31:32.430Z,1021.45
2016-12-11T07:32:32.424Z,1021.42
2016-12-11T07:33:32.411Z,1021.33
2016-12-11T07:34:32.403Z,1021.29
2016-12-11T07:35:32.394Z,1021.27
2016-12-11T07:36:32.385Z,1021.25
2016-12-11T07:37:32.372Z,1021.34
2016-12-11T07:38:32.363Z,1021.3
2016-12-11T07:39:32.354Z,1021.26
2016-12-11T07:40:32.346Z,1021.25
2016-12-11T07:41:32.336Z,1021.23
2016-12-11T07:42:32.325Z,1021.23
2016-12-11T07:43:32.316Z,1021.22
2016-12-11T07:44:32.309Z,1021.18
2016-12-11T07:45:32.296Z,1021.14
2016-12-11T07:46:32.287Z,1021.17
2016-12-11T07:47:32.280Z,1021.14
2016-12-11T07:48:32.269Z,1021.16
2016-12-11T07:49:32.259Z,1021.25
2016-12-11T07:50:32.249Z,1021.07
2016-12-11T07:51:32.240Z,1021.1
2016-12-11T07:52:32.231Z,1020.93
2016-12-11T07:53:32.221Z,1020.98
2016-12-11T07:54:32.214Z,1020.94
2016-12-11T07:55:32.207Z,1021
2016-12-11T07:56:32.192Z,1020.97
2016-12-11T07:57:32.183Z,1020.99
2016-12-11T07:58:32.176Z,1021.01
2016-12-11T07:59:32.166Z,1021
2016-12-11T08:00:32.155Z,1020.97
2016-12-11T08:01:32.146Z,1020.94
2016-12-11T08:02:32.137Z,1020.9
2016-12-11T08:03:32.128Z,1020.84
2016-12-11T08:04:32.117Z,1020.83
2016-12-11T08:05:32.110Z,1020.8
2016-12-11T08:06:32.100Z,1020.78
2016-12-11T08:07:32.091Z,1020.73
2016-12-11T08:08:32.081Z,1020.71
2016-12-11T08:09:32.073Z,1020.69
2016-12-11T08:10:32.061Z,1020.72
2016-12-11T08:11:32.053Z,1020.65
2016-12-11T08:12:32.045Z,1020.64
2016-12-11T08:13:32.033Z,1020.75
2016-12-11T08:14:32.026Z,1020.72
2016-12-11T08:15:32.016Z,1020.69
2016-12-11T08:16:32.007Z,1020.72
2016-12-11T08:17:32.001Z,1020.65
2016-12-11T08:18:31.986Z,1020.62
2016-12-11T08:19:31.979Z,1020.67
2016-12-11T08:20:31.969Z,1020.68
2016-12-11T08:21:31.960Z,1020.65
2016-12-11T08:22:31.951Z,1020.67
2016-12-11T08:23:31.941Z,1020.67
2016-12-11T08:24:31.931Z,1020.67
2016-12-11T08:25:31.923Z,1020.67
2016-12-11T08:26:31.915Z,1020.69
2016-12-11T08:27:31.902Z,1020.69
2016-12-11T08:28:31.894Z,1020.69
2016-12-11T08:29:31.887Z,1020.68
2016-12-11T08:30:31.877Z,1020.66
2016-12-11T08:31:31.868Z,1020.64
2016-12-11T08:32:31.856Z,1020.61
2016-12-11T08:33:31.850Z,1020.73
2016-12-11T08:34:31.838Z,1020.67
2016-12-11T08:35:31.832Z,1020.65
2016-12-11T08:36:31.821Z,1020.58
2016-12-11T08:37:31.812Z,1020.63
2016-12-11T08:38:31.802Z,1020.58
2016-12-11T08:39:31.794Z,1020.6
2016-12-11T08:40:31.782Z,1020.53
2016-12-11T08:41:31.774Z,1020.57
2016-12-11T08:42:31.767Z,1020.64
2016-12-11T08:43:31.755Z,1020.63
2016-12-11T08:44:31.746Z,1020.52
2016-12-11T08:45:31.739Z,1020.54
2016-12-11T08:46:31.729Z,1020.43
2016-12-11T08:47:31.720Z,1020.35
2016-12-11T08:48:31.709Z,1020.42
2016-12-11T08:49:31.700Z,1020.38
2016-12-11T08:50:31.692Z,1020.35
2016-12-11T08:51:31.687Z,1020.36
2016-12-11T08:52:31.675Z,1020.34
2016-12-11T08:53:31.666Z,1020.44
2016-12-11T08:54:31.654Z,1020.38
2016-12-11T08:55:31.647Z,1020.45
2016-12-11T08:56:31.636Z,1020.45
2016-12-11T08:57:31.631Z,1020.53
2016-12-11T08:58:31.625Z,1020.46
2016-12-11T08:59:31.610Z,1020.5
2016-12-11T09:00:31.600Z,1020.48
2016-12-11T09:01:31.590Z,1020.35
2016-12-11T09:02:31.581Z,1020.37
2016-12-11T09:03:31.573Z,1020.33
2016-12-11T09:04:31.566Z,1020.45
2016-12-11T09:05:31.554Z,1020.48
2016-12-11T09:06:31.545Z,1020.53
2016-12-11T09:07:31.541Z,1020.57
2016-12-11T09:08:31.528Z,1020.5
2016-12-11T09:09:31.520Z,1020.5
2016-12-11T09:10:31.509Z,1020.56
2016-12-11T09:11:31.503Z,1020.48
2016-12-11T09:12:31.491Z,1020.54
2016-12-11T09:13:31.482Z,1020.65
2016-12-11T09:14:31.475Z,1020.63
2016-12-11T09:15:31.468Z,1020.67
2016-12-11T09:16:31.806Z,1020.63
2016-12-11T09:17:31.446Z,1020.65
2016-12-11T09:18:31.439Z,1020.6
2016-12-11T09:19:31.431Z,1020.56
2016-12-11T09:20:31.421Z,1020.6
2016-12-11T09:21:31.410Z,1020.56
2016-12-11T09:22:31.403Z,1020.57
2016-12-11T09:23:31.391Z,1020.58
2016-12-11T09:24:31.383Z,1020.6
2016-12-11T09:25:31.377Z,1020.6
2016-12-11T09:26:31.365Z,1020.55
2016-12-11T09:27:31.357Z,1020.54
2016-12-11T09:28:31.347Z,1020.56
2016-12-11T09:29:31.339Z,1020.48
2016-12-11T09:30:31.329Z,1020.49
2016-12-11T09:31:31.321Z,1020.51
2016-12-11T09:32:31.311Z,1020.45
2016-12-11T09:33:31.304Z,1020.57
2016-12-11T09:34:31.292Z,1020.46
2016-12-11T09:35:31.284Z,1020.43
2016-12-11T09:36:31.276Z,1020.51
2016-12-11T09:37:31.268Z,1020.48
2016-12-11T09:38:31.256Z,1020.51
2016-12-11T09:39:31.248Z,1020.5
2016-12-11T09:40:31.239Z,1020.54
2016-12-11T09:41:31.231Z,1020.52
2016-12-11T09:42:31.224Z,1020.51
2016-12-11T09:43:31.212Z,1020.52
2016-12-11T09:44:31.203Z,1020.55
2016-12-11T09:45:31.196Z,1020.5
2016-12-11T09:46:31.189Z,1020.52
2016-12-11T09:47:31.177Z,1020.54
2016-12-11T09:48:31.168Z,1020.54
2016-12-11T09:49:31.162Z,1020.52
2016-12-11T09:50:31.152Z,1020.54
2016-12-11T09:51:31.141Z,1020.63
2016-12-11T09:52:31.134Z,1020.58
2016-12-11T09:53:31.125Z,1020.5
2016-12-11T09:54:31.115Z,1020.56
2016-12-11T09:55:31.106Z,1020.53
2016-12-11T09:56:31.098Z,1020.58
2016-12-11T09:57:31.087Z,1020.61
2016-12-11T09:58:31.080Z,1020.72
2016-12-11T09:59:31.070Z,1020.69
2016-12-11T10:00:31.060Z,1020.77
2016-12-11T10:01:31.051Z,1020.79
2016-12-11T10:02:31.042Z,1020.81
2016-12-11T10:03:31.037Z,1020.88
2016-12-11T10:04:31.025Z,1020.95
2016-12-11T10:05:31.016Z,1021
2016-12-11T10:06:31.009Z,1021.07
2016-12-11T10:07:30.998Z,1021.16
2016-12-11T10:08:30.989Z,1021.07
2016-12-11T10:09:30.981Z,1021.18
2016-12-11T10:10:30.973Z,1021.06
2016-12-11T10:11:30.963Z,1020.97
2016-12-11T10:12:30.957Z,1020.92
2016-12-11T10:13:30.949Z,1020.77
2016-12-11T10:14:30.935Z,1020.72
2016-12-11T10:15:30.929Z,1020.75
2016-12-11T10:16:30.919Z,1020.9
2016-12-11T10:17:30.910Z,1021.19
2016-12-11T10:18:30.905Z,1021.15
2016-12-11T10:19:30.892Z,1021.31
2016-12-11T10:20:30.884Z,1021.3
2016-12-11T10:21:30.878Z,1021.68
2016-12-11T10:22:30.867Z,1021.69
2016-12-11T10:23:30.860Z,1021.88
2016-12-11T10:24:30.852Z,1021.98
2016-12-11T10:25:30.841Z,1022.07
2016-12-11T10:26:30.832Z,1022.29
2016-12-11T10:27:30.826Z,1022.43
2016-12-11T10:28:30.817Z,1022.77
2016-12-11T10:29:30.807Z,1022.94
2016-12-11T10:30:30.799Z,1023.34
2016-12-11T10:31:30.789Z,1023.07
2016-12-11T10:32:30.780Z,1023.14
2016-12-11T10:33:30.771Z,1023.4
2016-12-11T10:34:30.762Z,1023.44
2016-12-11T10:35:30.755Z,1023.48
2016-12-11T10:36:30.746Z,1023.55
2016-12-11T10:37:30.736Z,1023.64
2016-12-11T10:38:30.727Z,1023.69
2016-12-11T10:39:30.720Z,1023.64
2016-12-11T10:40:30.710Z,1023.62
2016-12-11T10:41:30.700Z,1023.59
2016-12-11T10:42:30.717Z,1023.73
2016-12-11T10:43:30.683Z,1023.74
2016-12-11T10:44:30.673Z,1023.95
2016-12-11T10:45:30.666Z,1024.1
2016-12-11T10:46:30.655Z,1024.04
2016-12-11T10:47:30.645Z,1023.96
2016-12-11T10:48:30.636Z,1024.22
2016-12-11T10:49:30.628Z,1024.29
2016-12-11T10:50:30.618Z,1024.22
2016-12-11T10:51:30.608Z,1024.12
2016-12-11T10:52:30.600Z,1024.35
2016-12-11T10:53:30.594Z,1024.23
2016-12-11T10:54:30.584Z,1024.28
2016-12-11T10:55:30.572Z,1024.18
2016-12-11T10:56:30.564Z,1024.18
2016-12-11T10:57:30.553Z,1024.05
2016-12-11T10:58:30.546Z,1024.23
2016-12-11T10:59:30.536Z,1024.12
2016-12-11T11:00:30.526Z,1024.15
2016-12-11T11:01:30.516Z,1024.07
2016-12-11T11:02:30.507Z,1024.03
2016-12-11T11:03:30.497Z,1024.05
2016-12-11T11:04:30.490Z,1024.14
2016-12-11T11:05:30.481Z,1024.32
2016-12-11T11:06:30.471Z,1024.23
2016-12-11T11:07:30.460Z,1024.23
2016-12-11T11:08:30.454Z,1024.36
2016-12-11T11:09:30.444Z,1024.48
2016-12-11T11:10:30.435Z,1024.6
2016-12-11T11:11:30.424Z,1024.7
2016-12-11T11:12:30.417Z,1024.74
2016-12-11T11:13:30.404Z,1024.94
2016-12-11T11:14:30.396Z,1024.75
2016-12-11T11:15:30.388Z,1024.81
2016-12-11T11:16:30.377Z,1024.93
2016-12-11T11:17:30.369Z,1024.89
2016-12-11T11:18:30.358Z,1024.97
2016-12-11T11:19:30.351Z,1025.02
2016-12-11T11:20:30.341Z,1025.11
2016-12-11T11:21:30.330Z,1025.1
2016-12-11T11:22:30.320Z,1025.14
2016-12-11T11:23:30.311Z,1025.24
2016-12-11T11:24:30.301Z,1025.26
2016-12-11T11:25:30.292Z,1025.15
2016-12-11T11:26:30.283Z,1025.21
2016-12-11T11:27:30.275Z,1025.2
2016-12-11T11:28:30.265Z,1025.12
2016-12-11T11:29:30.253Z,1024.99
2016-12-11T11:30:30.246Z,1025.06
2016-12-11T11:31:30.234Z,1024.93
2016-12-11T11:32:30.226Z,1024.94
2016-12-11T11:33:30.218Z,1024.92
2016-12-11T11:34:30.209Z,1024.94
2016-12-11T11:35:30.198Z,1025.13
2016-12-11T11:36:30.189Z,1025.11
2016-12-11T11:37:30.180Z,1025.24
2016-12-11T11:38:30.168Z,1025.21
2016-12-11T11:39:30.160Z,1025.26
2016-12-11T11:40:30.153Z,1025.24
2016-12-11T11:41:30.142Z,1025.32
2016-12-11T11:42:30.132Z,1025.34
2016-12-11T11:43:30.125Z,1025.4
2016-12-11T11:44:30.115Z,1025.44
2016-12-11T11:45:30.106Z,1025.26
2016-12-11T11:46:30.095Z,1025.28
2016-12-11T11:47:30.084Z,1025.38
2016-12-11T11:48:30.075Z,1024.83
2016-12-11T11:49:30.067Z,1025.43
2016-12-11T11:50:30.055Z,1025.39
2016-12-11T11:51:30.050Z,1025.57
2016-12-11T11:52:30.040Z,1025.67
2016-12-11T11:53:30.027Z,1025.61
2016-12-11T11:54:30.020Z,1025.63
2016-12-11T11:55:30.012Z,1025.64
2016-12-11T11:56:30.000Z,1025.58
2016-12-11T11:57:29.992Z,1025.51
2016-12-11T11:58:29.983Z,1025.52
2016-12-11T11:59:29.974Z,1025.48
2016-12-11T12:00:29.964Z,1025.39
2016-12-11T12:01:29.955Z,1025.41
2016-12-11T12:02:29.944Z,1025.41
2016-12-11T12:03:29.935Z,1025.34
2016-12-11T12:04:29.924Z,1025.28
2016-12-11T12:05:29.916Z,1025.2
2016-12-11T12:06:29.909Z,1025.14
2016-12-11T12:07:29.900Z,1025.13
2016-12-11T12:08:29.888Z,1025.12